createdAt,value
2018-08-16T00:00:00.857Z,32.7
2018-08-16T00:05:00.789Z,33.4
2018-08-16T00:10:00.789Z,34.4
2018-08-16T00:15:00.794Z,34.0
2018-08-16T00:20:00.874Z,32.6
2018-08-16T00:25:00.794Z,30.6
2018-08-16T00:30:00.876Z,30.3
2018-08-16T00:35:00.790Z,28.8
2018-08-16T00:40:00.942Z,27.6
2018-08-16T00:45:00.794Z,28.3
2018-08-16T00:50:00.808Z,29.3
2018-08-16T00:55:00.808Z,31.1
2018-08-16T01:00:00.863Z,35.4
2018-08-16T01:05:00.767Z,39.8
2018-08-16T01:10:00.840Z,43.2
2018-08-16T01:15:00.774Z,45.5
2018-08-16T01:20:00.838Z,47.2
2018-08-16T01:25:00.784Z,47.5
2018-08-16T01:30:00.786Z,48.7
2018-08-16T01:35:00.783Z,49.5
2018-08-16T01:40:00.844Z,51.4
2018-08-16T01:45:00.781Z,52.2
2018-08-16T01:50:00.779Z,52.9
2018-08-16T01:55:00.813Z,53.4
2018-08-16T02:00:00.943Z,54.5
2018-08-16T02:05:00.848Z,54.2
2018-08-16T02:10:00.833Z,56.1
2018-08-16T02:15:00.822Z,56.5
2018-08-16T02:20:00.966Z,56.4
2018-08-16T02:25:00.831Z,56.8
2018-08-16T02:30:00.950Z,57.9
2018-08-16T02:35:00.813Z,57.7
2018-08-16T02:40:00.888Z,58.6
2018-08-16T02:45:00.830Z,59.2
2018-08-16T02:50:00.857Z,58.6
2018-08-16T02:55:00.801Z,59.0
2018-08-16T03:00:00.802Z,59.1
2018-08-16T03:05:00.804Z,59.8
2018-08-16T03:10:00.804Z,59.3
2018-08-16T03:15:00.802Z,59.4
2018-08-16T03:20:00.876Z,59.0
2018-08-16T03:25:00.811Z,58.8
2018-08-16T03:30:00.878Z,57.9
2018-08-16T03:35:00.814Z,58.4
2018-08-16T03:40:00.944Z,58.3
2018-08-16T03:45:00.816Z,58.0
2018-08-16T03:50:00.949Z,57.6
2018-08-16T03:55:00.820Z,57.7
2018-08-16T04:00:00.883Z,58.7
2018-08-16T04:05:00.820Z,58.6
2018-08-16T04:10:00.954Z,58.9
2018-08-16T04:15:00.794Z,58.8
2018-08-16T04:20:01.044Z,58.3
2018-08-16T04:25:00.827Z,57.0
2018-08-16T04:30:00.891Z,57.0
2018-08-16T04:35:00.907Z,55.6
2018-08-16T04:45:00.893Z,56.5
2018-08-16T04:50:00.965Z,56.9
2018-08-16T04:55:00.865Z,56.8
2018-08-16T05:00:00.928Z,57.8
2018-08-16T05:05:00.867Z,57.6
2018-08-16T05:10:01.009Z,56.8
2018-08-16T05:15:00.870Z,56.4
2018-08-16T05:20:00.941Z,56.7
2018-08-16T05:25:00.878Z,55.9
2018-08-16T05:30:00.937Z,55.8
2018-08-16T05:35:00.881Z,56.1
2018-08-16T05:40:00.896Z,55.8
2018-08-16T05:45:00.882Z,55.6
2018-08-16T05:50:00.975Z,56.0
2018-08-16T05:55:00.877Z,56.7
2018-08-16T06:00:00.979Z,57.1
2018-08-16T06:05:00.849Z,57.9
2018-08-16T06:10:01.048Z,58.6
2018-08-16T06:15:01.038Z,58.7
2018-08-16T06:20:00.923Z,58.2
2018-08-16T06:25:00.923Z,57.1
2018-08-16T06:30:00.858Z,57.2
2018-08-16T06:35:00.891Z,56.8
2018-08-16T06:40:00.949Z,56.6
2018-08-16T06:45:00.891Z,56.6
2018-08-16T06:50:00.936Z,56.8
2018-08-16T06:55:00.877Z,56.5
2018-08-16T07:00:00.961Z,56.1
2018-08-16T07:05:01.028Z,55.8
2018-08-16T07:10:00.939Z,55.4
2018-08-16T07:15:00.873Z,54.8
2018-08-16T07:20:00.947Z,54.2
2018-08-16T07:25:00.871Z,53.9
2018-08-16T07:30:01.078Z,53.7
2018-08-16T07:35:00.904Z,53.5
2018-08-16T07:40:00.969Z,54.2
2018-08-16T07:45:00.911Z,54.3
2018-08-16T07:50:00.979Z,55.0
2018-08-16T07:55:00.919Z,55.8
2018-08-16T08:00:00.993Z,56.3
2018-08-16T08:05:00.915Z,55.9
2018-08-16T08:10:00.978Z,54.6
2018-08-16T08:15:01.052Z,52.1
2018-08-16T08:20:00.987Z,48.8
2018-08-16T08:25:00.917Z,46.5
2018-08-16T08:30:00.962Z,44.9
2018-08-16T08:35:00.902Z,43.9
2018-08-16T08:40:01.032Z,43.8
2018-08-16T08:45:00.902Z,44.2
2018-08-16T08:50:00.976Z,44.5
2018-08-16T08:55:00.947Z,43.6
2018-08-16T09:10:00.518Z,40.0
2018-08-16T09:30:00.813Z,36.0
2018-08-16T09:50:01.130Z,36.4
2018-08-16T09:55:01.094Z,36.7
2018-08-16T10:00:01.227Z,36.7
2018-08-16T10:05:01.084Z,34.5
2018-08-16T10:10:01.176Z,34.1
2018-08-16T10:15:01.065Z,32.0
2018-08-16T10:20:01.130Z,29.9
2018-08-16T10:25:01.069Z,28.3
2018-08-16T10:30:01.209Z,28.3
2018-08-16T10:35:01.069Z,27.2
2018-08-16T10:40:01.079Z,27.8
2018-08-16T10:45:01.078Z,27.2
2018-08-16T10:50:01.141Z,25.8
2018-08-16T10:55:01.082Z,24.4
2018-08-16T11:00:01.164Z,23.2
2018-08-16T11:05:01.088Z,21.2
2018-08-16T11:10:01.219Z,20.7
2018-08-16T11:15:01.088Z,21.6
2018-08-16T11:20:01.168Z,22.8
2018-08-16T11:25:01.097Z,23.6
2018-08-16T11:30:01.168Z,24.7
2018-08-16T11:35:01.158Z,26.1
2018-08-16T11:40:01.240Z,25.8
2018-08-16T11:45:01.132Z,25.0
2018-08-16T11:50:01.175Z,24.9
2018-08-16T11:55:01.100Z,25.3
2018-08-16T12:00:01.168Z,24.8
2018-08-16T12:05:01.104Z,25.4
2018-08-16T12:10:06.139Z,26.1
2018-08-16T12:15:01.116Z,26.2
2018-08-16T12:20:06.110Z,25.6
2018-08-16T12:25:06.119Z,26.4
2018-08-16T12:30:06.182Z,25.8
2018-08-16T12:35:01.219Z,25.4
2018-08-16T12:40:01.169Z,26.1
2018-08-16T12:45:01.165Z,26.7
2018-08-16T12:50:01.193Z,26.0
2018-08-16T12:55:01.101Z,26.2
2018-08-16T13:00:01.292Z,27.3
2018-08-16T13:05:01.105Z,27.2
2018-08-16T13:10:01.103Z,26.6
2018-08-16T13:15:01.131Z,26.4
2018-08-16T13:20:01.217Z,27.2
2018-08-16T13:25:01.108Z,26.8
2018-08-16T13:30:01.217Z,27.1
2018-08-16T13:35:01.117Z,26.7
2018-08-16T13:40:01.166Z,27.0
2018-08-16T13:45:01.170Z,26.0
2018-08-16T13:50:01.174Z,25.5
2018-08-16T13:55:01.164Z,25.0
2018-08-16T14:00:06.240Z,24.7
2018-08-16T14:05:01.118Z,24.4
2018-08-16T14:10:01.177Z,24.6
2018-08-16T14:15:01.115Z,23.5
2018-08-16T14:20:01.186Z,23.0
2018-08-16T14:25:01.095Z,23.8
2018-08-16T14:30:01.171Z,24.1
2018-08-16T14:35:01.101Z,23.3
2018-08-16T14:40:06.103Z,24.6
2018-08-16T14:45:01.120Z,25.1
2018-08-16T14:50:06.113Z,24.8
2018-08-16T14:55:01.109Z,25.2
2018-08-16T15:00:01.174Z,26.4
2018-08-16T15:05:06.123Z,25.5
2018-08-16T15:10:02.230Z,25.4
2018-08-16T15:16:01.105Z,25.6
2018-08-16T15:21:01.100Z,25.2
2018-08-16T15:26:01.108Z,24.5
2018-08-16T15:31:01.107Z,26.7
2018-08-16T15:36:01.182Z,26.6
2018-08-16T15:41:01.180Z,26.9
2018-08-16T15:46:01.179Z,27.6
2018-08-16T15:51:01.153Z,28.0
2018-08-16T15:56:06.112Z,27.0
2018-08-16T16:01:06.240Z,27.4
2018-08-16T16:06:01.269Z,26.3
2018-08-16T16:11:01.155Z,24.6
2018-08-16T16:16:01.150Z,24.2
2018-08-16T16:21:01.141Z,23.4
2018-08-16T16:26:06.117Z,22.7
2018-08-16T16:31:01.137Z,23.3
2018-08-16T16:36:06.109Z,23.6
2018-08-16T16:41:06.109Z,23.2
2018-08-16T16:46:06.099Z,22.9
2018-08-16T16:51:06.111Z,22.3
2018-08-16T16:56:06.114Z,21.5
2018-08-16T17:01:01.224Z,21.1
2018-08-16T17:06:01.111Z,20.6
2018-08-16T17:11:01.180Z,20.0
2018-08-16T17:16:01.108Z,19.7
2018-08-16T17:21:01.109Z,19.9
2018-08-16T17:26:01.134Z,19.8
2018-08-16T17:32:01.194Z,19.4
2018-08-16T17:37:01.100Z,19.0
2018-08-16T17:47:01.174Z,18.6
2018-08-16T17:52:01.181Z,17.9
2018-08-16T17:57:01.113Z,17.4
2018-08-16T18:02:01.176Z,17.2
2018-08-16T18:07:01.108Z,16.4
2018-08-16T18:12:01.102Z,16.5
2018-08-16T18:17:01.105Z,16.8
2018-08-16T18:22:01.231Z,17.1
2018-08-16T18:27:01.108Z,16.7
2018-08-16T18:32:01.113Z,16.6
2018-08-16T18:37:01.132Z,16.1
2018-08-16T18:42:01.102Z,16.0
2018-08-16T18:47:01.135Z,15.8
2018-08-16T18:52:01.106Z,16.6
2018-08-16T18:57:01.111Z,16.9
2018-08-16T19:02:01.095Z,17.5
2018-08-16T19:07:01.098Z,17.9
2018-08-16T19:12:01.264Z,19.1
2018-08-16T19:22:01.236Z,19.2
2018-08-16T19:27:01.105Z,18.5
2018-08-16T19:32:01.238Z,18.3
2018-08-16T19:37:01.110Z,18.7
2018-08-16T19:42:01.111Z,19.1
2018-08-16T19:47:01.111Z,19.8
2018-08-16T19:52:01.122Z,20.7
2018-08-16T19:58:01.181Z,20.9
2018-08-16T20:03:01.269Z,20.0
2018-08-16T20:13:06.248Z,19.6
2018-08-16T20:18:01.171Z,20.6
2018-08-16T20:23:06.179Z,21.8
2018-08-16T20:28:01.140Z,22.6
2018-08-16T20:33:01.270Z,22.9
2018-08-16T20:38:01.121Z,24.2
2018-08-16T20:43:06.106Z,24.4
2018-08-16T20:48:06.118Z,25.8
2018-08-16T20:53:01.196Z,27.2
2018-08-16T20:58:01.133Z,27.5
2018-08-16T21:03:06.115Z,27.6
2018-08-16T21:08:06.116Z,27.8
2018-08-16T21:13:01.232Z,26.4
2018-08-16T21:18:06.102Z,25.6
2018-08-16T21:23:01.259Z,26.5
2018-08-16T21:28:01.137Z,26.9
2018-08-16T21:33:06.241Z,27.6
2018-08-16T21:38:01.138Z,28.0
2018-08-16T21:43:01.261Z,29.4
2018-08-16T21:48:06.108Z,30.8
2018-08-16T21:53:06.196Z,32.2
2018-08-16T21:58:06.121Z,31.9
2018-08-16T22:03:01.197Z,32.6
2018-08-16T22:08:06.118Z,32.5
2018-08-16T22:20:00.392Z,36.2
2018-08-16T22:25:00.318Z,33.4
2018-08-16T22:30:00.352Z,32.5
2018-08-16T22:35:00.322Z,32.4
2018-08-16T22:40:00.352Z,31.4
2018-08-16T22:45:00.320Z,30.9
2018-08-16T22:50:00.314Z,31.5
2018-08-16T22:55:00.321Z,31.7
2018-08-16T23:00:00.383Z,30.5
2018-08-16T23:05:00.335Z,31.1
2018-08-16T23:10:00.381Z,30.6
2018-08-16T23:15:00.376Z,29.3
2018-08-16T23:20:00.458Z,29.4
2018-08-16T23:25:00.371Z,28.7
2018-08-16T23:30:00.445Z,27.6
2018-08-16T23:35:00.371Z,26.7
2018-08-16T23:40:00.385Z,26.5
2018-08-16T23:45:00.367Z,25.3
2018-08-16T23:50:00.368Z,26.0
2018-08-16T23:55:00.368Z,25.1
